sensor_id;sensor_type;location;lat;lon;timestamp;temperature;humidity
5394;DHT22;2720;52.396;10.064;2022-12-16T00:01:03;-7.50;99.90
5394;DHT22;2720;52.396;10.064;2022-12-16T00:03:31;-7.60;99.90
5394;DHT22;2720;52.396;10.064;2022-12-16T00:05:59;-7.60;99.90
5394;DHT22;2720;52.396;10.064;2022-12-16T00:08:28;-7.60;99.90
5394;DHT22;2720;52.396;10.064;2022-12-16T00:10:57;-7.60;99.90
5394;DHT22;2720;52.396;10.064;2022-12-16T00:13:24;-7.40;99.90
5394;DHT22;2720;52.396;10.064;2022-12-16T00:15:51;-7.60;99.90
5394;DHT22;2720;52.396;10.064;2022-12-16T00:18:18;-7.50;99.90
5394;DHT22;2720;52.396;10.064;2022-12-16T00:20:48;-7.60;99.90
5394;DHT22;2720;52.396;10.064;2022-12-16T00:23:15;-7.70;99.90
5394;DHT22;2720;52.396;10.064;2022-12-16T00:25:42;-7.80;99.90
5394;DHT22;2720;52.396;10.064;2022-12-16T00:28:10;-7.70;99.90
5394;DHT22;2720;52.396;10.064;2022-12-16T00:30:37;-7.70;99.90
5394;DHT22;2720;52.396;10.064;2022-12-16T00:33:05;-7.70;99.90
5394;DHT22;2720;52.396;10.064;2022-12-16T00:35:32;-7.80;99.90
5394;DHT22;2720;52.396;10.064;2022-12-16T00:38:00;-7.80;99.90
5394;DHT22;2720;52.396;10.064;2022-12-16T00:40:27;-7.90;99.90
5394;DHT22;2720;52.396;10.064;2022-12-16T00:42:54;-7.90;99.90
5394;DHT22;2720;52.396;10.064;2022-12-16T00:45:21;-7.70;99.90
5394;DHT22;2720;52.396;10.064;2022-12-16T00:47:49;-8.00;99.90
5394;DHT22;2720;52.396;10.064;2022-12-16T00:50:16;-7.90;99.90
5394;DHT22;2720;52.396;10.064;2022-12-16T00:52:45;-8.00;99.90
5394;DHT22;2720;52.396;10.064;2022-12-16T00:55:14;-7.90;99.90
5394;DHT22;2720;52.396;10.064;2022-12-16T00:57:42;-8.00;99.90
5394;DHT22;2720;52.396;10.064;2022-12-16T01:00:11;-8.00;99.90
5394;DHT22;2720;52.396;10.064;2022-12-16T01:02:38;-8.20;99.90
5394;DHT22;2720;52.396;10.064;2022-12-16T01:05:07;-8.00;99.90
5394;DHT22;2720;52.396;10.064;2022-12-16T01:07:34;-8.20;99.90
5394;DHT22;2720;52.396;10.064;2022-12-16T01:10:03;-8.00;99.90
5394;DHT22;2720;52.396;10.064;2022-12-16T01:12:32;-8.10;99.90
5394;DHT22;2720;52.396;10.064;2022-12-16T01:15:00;-8.10;99.90
5394;DHT22;2720;52.396;10.064;2022-12-16T01:17:27;-8.00;99.90
5394;DHT22;2720;52.396;10.064;2022-12-16T01:19:54;-8.00;99.90
5394;DHT22;2720;52.396;10.064;2022-12-16T01:22:21;-7.80;99.90
5394;DHT22;2720;52.396;10.064;2022-12-16T01:24:48;-8.10;99.90
5394;DHT22;2720;52.396;10.064;2022-12-16T01:27:15;-7.90;99.90
5394;DHT22;2720;52.396;10.064;2022-12-16T01:29:44;-7.90;99.90
5394;DHT22;2720;52.396;10.064;2022-12-16T01:32:12;-8.00;99.90
5394;DHT22;2720;52.396;10.064;2022-12-16T01:34:39;-8.10;99.90
5394;DHT22;2720;52.396;10.064;2022-12-16T01:37:08;-8.20;99.90
5394;DHT22;2720;52.396;10.064;2022-12-16T01:39:36;-8.10;99.90
5394;DHT22;2720;52.396;10.064;2022-12-16T01:42:10;-8.30;99.90
5394;DHT22;2720;52.396;10.064;2022-12-16T01:44:40;-8.10;99.90
5394;DHT22;2720;52.396;10.064;2022-12-16T01:47:14;-8.00;99.90
5394;DHT22;2720;52.396;10.064;2022-12-16T01:49:44;-8.10;99.90
5394;DHT22;2720;52.396;10.064;2022-12-16T01:52:15;-8.00;99.90
5394;DHT22;2720;52.396;10.064;2022-12-16T01:54:46;-8.10;99.90
5394;DHT22;2720;52.396;10.064;2022-12-16T01:57:18;-7.70;99.90
5394;DHT22;2720;52.396;10.064;2022-12-16T01:59:49;-8.20;99.90
5394;DHT22;2720;52.396;10.064;2022-12-16T02:02:19;-8.30;99.90
5394;DHT22;2720;52.396;10.064;2022-12-16T02:04:47;-8.30;99.90
5394;DHT22;2720;52.396;10.064;2022-12-16T02:07:28;-8.30;99.90
5394;DHT22;2720;52.396;10.064;2022-12-16T02:09:55;-8.20;99.90
5394;DHT22;2720;52.396;10.064;2022-12-16T02:12:27;-8.10;99.90
5394;DHT22;2720;52.396;10.064;2022-12-16T02:15:22;-8.20;99.90
5394;DHT22;2720;52.396;10.064;2022-12-16T02:17:59;-8.50;99.90
5394;DHT22;2720;52.396;10.064;2022-12-16T02:21:04;-8.40;99.90
5394;DHT22;2720;52.396;10.064;2022-12-16T02:26:49;-8.60;99.90
5394;DHT22;2720;52.396;10.064;2022-12-16T02:29:46;-8.50;99.90
5394;DHT22;2720;52.396;10.064;2022-12-16T02:32:27;-8.40;99.90
5394;DHT22;2720;52.396;10.064;2022-12-16T02:35:02;-8.50;99.90
5394;DHT22;2720;52.396;10.064;2022-12-16T02:37:38;-8.60;99.90
5394;DHT22;2720;52.396;10.064;2022-12-16T02:40:14;-8.40;99.90
5394;DHT22;2720;52.396;10.064;2022-12-16T02:42:46;-8.50;99.90
5394;DHT22;2720;52.396;10.064;2022-12-16T02:45:15;-8.50;99.90
5394;DHT22;2720;52.396;10.064;2022-12-16T02:47:45;-8.50;99.90
5394;DHT22;2720;52.396;10.064;2022-12-16T02:50:17;-8.60;99.90
5394;DHT22;2720;52.396;10.064;2022-12-16T02:52:45;-8.60;99.90
5394;DHT22;2720;52.396;10.064;2022-12-16T02:55:12;-8.80;99.90
5394;DHT22;2720;52.396;10.064;2022-12-16T02:57:58;-8.60;99.90
5394;DHT22;2720;52.396;10.064;2022-12-16T03:00:30;-8.70;99.90
5394;DHT22;2720;52.396;10.064;2022-12-16T03:03:03;-8.80;99.90
5394;DHT22;2720;52.396;10.064;2022-12-16T03:05:34;-8.40;99.90
5394;DHT22;2720;52.396;10.064;2022-12-16T03:08:05;-8.70;99.90
5394;DHT22;2720;52.396;10.064;2022-12-16T03:10:37;-9.00;99.90
5394;DHT22;2720;52.396;10.064;2022-12-16T03:13:06;-8.80;99.90
5394;DHT22;2720;52.396;10.064;2022-12-16T03:15:38;-8.50;99.90
5394;DHT22;2720;52.396;10.064;2022-12-16T03:18:09;-9.10;99.90
5394;DHT22;2720;52.396;10.064;2022-12-16T03:20:41;-8.90;99.90
5394;DHT22;2720;52.396;10.064;2022-12-16T03:23:12;-9.10;99.90
5394;DHT22;2720;52.396;10.064;2022-12-16T03:25:43;-9.10;99.90
5394;DHT22;2720;52.396;10.064;2022-12-16T03:28:26;-9.10;99.90
5394;DHT22;2720;52.396;10.064;2022-12-16T03:30:59;-9.00;99.90
5394;DHT22;2720;52.396;10.064;2022-12-16T03:33:32;-8.90;99.90
5394;DHT22;2720;52.396;10.064;2022-12-16T03:36:05;-8.90;99.90
5394;DHT22;2720;52.396;10.064;2022-12-16T03:38:35;-8.60;99.90
5394;DHT22;2720;52.396;10.064;2022-12-16T03:41:03;-8.70;99.90
5394;DHT22;2720;52.396;10.064;2022-12-16T03:43:31;-8.70;99.90
5394;DHT22;2720;52.396;10.064;2022-12-16T03:46:02;-8.70;99.90
5394;DHT22;2720;52.396;10.064;2022-12-16T03:48:32;-8.50;99.90
5394;DHT22;2720;52.396;10.064;2022-12-16T03:51:00;-8.70;99.90
5394;DHT22;2720;52.396;10.064;2022-12-16T03:53:27;-8.90;99.90
5394;DHT22;2720;52.396;10.064;2022-12-16T03:55:54;-8.90;99.90
5394;DHT22;2720;52.396;10.064;2022-12-16T03:58:21;-9.30;99.90
5394;DHT22;2720;52.396;10.064;2022-12-16T04:00:48;-9.20;99.90
5394;DHT22;2720;52.396;10.064;2022-12-16T04:03:15;-9.30;99.90
5394;DHT22;2720;52.396;10.064;2022-12-16T04:05:44;-9.20;99.90
5394;DHT22;2720;52.396;10.064;2022-12-16T04:08:11;-9.30;99.90
5394;DHT22;2720;52.396;10.064;2022-12-16T04:10:38;-9.30;99.90
5394;DHT22;2720;52.396;10.064;2022-12-16T04:13:22;-9.20;99.90
5394;DHT22;2720;52.396;10.064;2022-12-16T04:16:07;-9.30;99.90
5394;DHT22;2720;52.396;10.064;2022-12-16T04:18:52;-9.30;99.90
5394;DHT22;2720;52.396;10.064;2022-12-16T04:21:38;-9.30;99.90
5394;DHT22;2720;52.396;10.064;2022-12-16T04:24:24;-9.20;99.90
5394;DHT22;2720;52.396;10.064;2022-12-16T04:26:53;-9.40;99.90
5394;DHT22;2720;52.396;10.064;2022-12-16T04:29:37;-9.40;99.90
5394;DHT22;2720;52.396;10.064;2022-12-16T04:32:24;-9.30;99.90
5394;DHT22;2720;52.396;10.064;2022-12-16T04:34:52;-9.40;99.90
5394;DHT22;2720;52.396;10.064;2022-12-16T04:37:19;-9.40;99.90
5394;DHT22;2720;52.396;10.064;2022-12-16T04:40:04;-9.40;99.90
5394;DHT22;2720;52.396;10.064;2022-12-16T04:42:48;-9.50;99.90
5394;DHT22;2720;52.396;10.064;2022-12-16T04:45:33;-9.40;99.90
5394;DHT22;2720;52.396;10.064;2022-12-16T04:48:17;-9.40;99.90
5394;DHT22;2720;52.396;10.064;2022-12-16T04:51:16;-9.30;99.90
5394;DHT22;2720;52.396;10.064;2022-12-16T04:54:02;-9.30;99.90
5394;DHT22;2720;52.396;10.064;2022-12-16T04:56:46;-9.00;99.90
5394;DHT22;2720;52.396;10.064;2022-12-16T04:59:31;-9.30;99.90
5394;DHT22;2720;52.396;10.064;2022-12-16T05:02:15;-9.30;99.90
5394;DHT22;2720;52.396;10.064;2022-12-16T05:04:59;-9.10;99.90
5394;DHT22;2720;52.396;10.064;2022-12-16T05:07:42;-9.30;99.90
5394;DHT22;2720;52.396;10.064;2022-12-16T05:10:28;-9.30;99.90
5394;DHT22;2720;52.396;10.064;2022-12-16T05:13:12;-9.30;99.90
5394;DHT22;2720;52.396;10.064;2022-12-16T05:15:58;-9.30;99.90
5394;DHT22;2720;52.396;10.064;2022-12-16T05:18:43;-9.20;99.90
5394;DHT22;2720;52.396;10.064;2022-12-16T05:21:27;-9.40;99.90
5394;DHT22;2720;52.396;10.064;2022-12-16T05:24:11;-9.40;99.90
5394;DHT22;2720;52.396;10.064;2022-12-16T05:26:57;-9.20;99.90
5394;DHT22;2720;52.396;10.064;2022-12-16T05:29:41;-9.30;99.90
5394;DHT22;2720;52.396;10.064;2022-12-16T05:32:34;-9.30;99.90
5394;DHT22;2720;52.396;10.064;2022-12-16T05:35:18;-9.40;99.90
5394;DHT22;2720;52.396;10.064;2022-12-16T05:38:02;-9.30;99.90
5394;DHT22;2720;52.396;10.064;2022-12-16T05:40:46;-9.20;99.90
5394;DHT22;2720;52.396;10.064;2022-12-16T05:43:37;-9.20;99.90
5394;DHT22;2720;52.396;10.064;2022-12-16T05:46:21;-9.10;99.90
5394;DHT22;2720;52.396;10.064;2022-12-16T05:49:06;-9.20;99.90
5394;DHT22;2720;52.396;10.064;2022-12-16T05:51:50;-9.30;99.90
5394;DHT22;2720;52.396;10.064;2022-12-16T05:54:34;-9.40;99.90
5394;DHT22;2720;52.396;10.064;2022-12-16T05:57:18;-9.30;99.90
5394;DHT22;2720;52.396;10.064;2022-12-16T06:00:04;-9.40;99.90
5394;DHT22;2720;52.396;10.064;2022-12-16T06:02:49;-9.50;99.90
5394;DHT22;2720;52.396;10.064;2022-12-16T06:05:33;-9.50;99.90
5394;DHT22;2720;52.396;10.064;2022-12-16T06:08:17;-9.50;99.90
5394;DHT22;2720;52.396;10.064;2022-12-16T06:11:01;-9.30;99.90
5394;DHT22;2720;52.396;10.064;2022-12-16T06:13:45;-9.50;99.90
5394;DHT22;2720;52.396;10.064;2022-12-16T06:16:32;-9.60;99.90
5394;DHT22;2720;52.396;10.064;2022-12-16T06:19:16;-9.60;99.90
5394;DHT22;2720;52.396;10.064;2022-12-16T06:22:00;-9.70;99.90
5394;DHT22;2720;52.396;10.064;2022-12-16T06:24:44;-9.70;99.90
5394;DHT22;2720;52.396;10.064;2022-12-16T06:27:28;-9.70;99.90
5394;DHT22;2720;52.396;10.064;2022-12-16T06:30:21;-9.80;99.90
5394;DHT22;2720;52.396;10.064;2022-12-16T06:33:07;-9.70;99.90
5394;DHT22;2720;52.396;10.064;2022-12-16T06:35:51;-9.70;99.90
5394;DHT22;2720;52.396;10.064;2022-12-16T06:38:35;-9.70;99.90
5394;DHT22;2720;52.396;10.064;2022-12-16T06:41:19;-9.30;99.90
5394;DHT22;2720;52.396;10.064;2022-12-16T06:44:03;-9.20;99.90
5394;DHT22;2720;52.396;10.064;2022-12-16T06:46:48;-9.40;99.90
5394;DHT22;2720;52.396;10.064;2022-12-16T06:49:33;-9.40;99.90
5394;DHT22;2720;52.396;10.064;2022-12-16T06:52:18;-9.30;99.90
5394;DHT22;2720;52.396;10.064;2022-12-16T06:55:02;-9.00;99.90
5394;DHT22;2720;52.396;10.064;2022-12-16T06:57:46;-9.00;99.90
5394;DHT22;2720;52.396;10.064;2022-12-16T07:00:31;-8.90;99.90
5394;DHT22;2720;52.396;10.064;2022-12-16T07:03:15;-8.50;99.90
5394;DHT22;2720;52.396;10.064;2022-12-16T07:06:01;-8.30;99.90
5394;DHT22;2720;52.396;10.064;2022-12-16T07:08:45;-8.20;99.90
5394;DHT22;2720;52.396;10.064;2022-12-16T07:11:29;-8.20;99.90
5394;DHT22;2720;52.396;10.064;2022-12-16T07:14:28;-8.20;99.90
5394;DHT22;2720;52.396;10.064;2022-12-16T07:17:12;-8.00;99.90
5394;DHT22;2720;52.396;10.064;2022-12-16T07:19:57;-7.80;99.90
5394;DHT22;2720;52.396;10.064;2022-12-16T07:22:43;-7.80;99.90
5394;DHT22;2720;52.396;10.064;2022-12-16T07:25:28;-7.60;99.90
5394;DHT22;2720;52.396;10.064;2022-12-16T07:28:12;-7.80;99.90
5394;DHT22;2720;52.396;10.064;2022-12-16T07:30:56;-7.70;99.90
5394;DHT22;2720;52.396;10.064;2022-12-16T07:33:40;-7.60;99.90
5394;DHT22;2720;52.396;10.064;2022-12-16T07:36:24;-7.40;99.90
5394;DHT22;2720;52.396;10.064;2022-12-16T07:39:10;-7.20;99.90
5394;DHT22;2720;52.396;10.064;2022-12-16T07:41:54;-7.10;99.90
5394;DHT22;2720;52.396;10.064;2022-12-16T07:44:38;-7.20;99.90
5394;DHT22;2720;52.396;10.064;2022-12-16T07:47:23;-7.00;99.90
5394;DHT22;2720;52.396;10.064;2022-12-16T07:50:08;-7.10;99.90
5394;DHT22;2720;52.396;10.064;2022-12-16T07:52:53;-7.00;99.90
5394;DHT22;2720;52.396;10.064;2022-12-16T07:55:39;-6.70;99.90
5394;DHT22;2720;52.396;10.064;2022-12-16T07:58:24;-6.50;99.90
5394;DHT22;2720;52.396;10.064;2022-12-16T08:01:08;-6.40;99.90
5394;DHT22;2720;52.396;10.064;2022-12-16T08:03:53;-6.30;99.90
5394;DHT22;2720;52.396;10.064;2022-12-16T08:06:37;-6.20;99.90
5394;DHT22;2720;52.396;10.064;2022-12-16T08:09:21;-6.00;99.90
5394;DHT22;2720;52.396;10.064;2022-12-16T08:12:07;-5.90;99.90
5394;DHT22;2720;52.396;10.064;2022-12-16T08:14:57;-5.80;99.90
5394;DHT22;2720;52.396;10.064;2022-12-16T08:17:46;-5.60;99.90
5394;DHT22;2720;52.396;10.064;2022-12-16T08:20:30;-5.40;99.90
5394;DHT22;2720;52.396;10.064;2022-12-16T08:23:15;-5.30;99.90
5394;DHT22;2720;52.396;10.064;2022-12-16T08:25:59;-5.30;99.90
5394;DHT22;2720;52.396;10.064;2022-12-16T08:28:45;-5.20;99.90
5394;DHT22;2720;52.396;10.064;2022-12-16T08:31:40;-5.10;99.90
5394;DHT22;2720;52.396;10.064;2022-12-16T08:34:25;-5.10;99.90
5394;DHT22;2720;52.396;10.064;2022-12-16T08:39:54;-5.10;99.90
5394;DHT22;2720;52.396;10.064;2022-12-16T08:42:38;-4.90;99.90
5394;DHT22;2720;52.396;10.064;2022-12-16T08:45:24;-4.80;99.90
5394;DHT22;2720;52.396;10.064;2022-12-16T08:48:10;-4.70;99.90
5394;DHT22;2720;52.396;10.064;2022-12-16T08:50:55;-4.50;99.90
5394;DHT22;2720;52.396;10.064;2022-12-16T08:53:39;-4.50;99.90
5394;DHT22;2720;52.396;10.064;2022-12-16T08:56:24;-4.40;99.90
5394;DHT22;2720;52.396;10.064;2022-12-16T08:59:08;-3.90;99.90
5394;DHT22;2720;52.396;10.064;2022-12-16T09:01:53;-4.00;99.90
5394;DHT22;2720;52.396;10.064;2022-12-16T09:04:38;-3.70;99.90
5394;DHT22;2720;52.396;10.064;2022-12-16T09:07:22;-3.70;99.90
5394;DHT22;2720;52.396;10.064;2022-12-16T09:10:07;-3.80;99.90
5394;DHT22;2720;52.396;10.064;2022-12-16T09:12:51;-3.50;99.90
5394;DHT22;2720;52.396;10.064;2022-12-16T09:15:35;-3.60;99.90
5394;DHT22;2720;52.396;10.064;2022-12-16T09:18:21;-3.50;99.90
5394;DHT22;2720;52.396;10.064;2022-12-16T09:21:05;-3.60;99.90
5394;DHT22;2720;52.396;10.064;2022-12-16T09:23:49;-3.10;99.90
5394;DHT22;2720;52.396;10.064;2022-12-16T09:26:33;-2.90;99.90
5394;DHT22;2720;52.396;10.064;2022-12-16T09:29:18;-2.80;99.90
5394;DHT22;2720;52.396;10.064;2022-12-16T09:32:02;-2.70;99.90
5394;DHT22;2720;52.396;10.064;2022-12-16T09:34:47;-3.10;99.90
5394;DHT22;2720;52.396;10.064;2022-12-16T09:37:32;-2.70;99.90
5394;DHT22;2720;52.396;10.064;2022-12-16T09:40:17;-2.40;99.90
5394;DHT22;2720;52.396;10.064;2022-12-16T09:43:05;-2.70;99.90
5394;DHT22;2720;52.396;10.064;2022-12-16T09:46:01;-2.30;99.90
5394;DHT22;2720;52.396;10.064;2022-12-16T09:48:52;-2.70;99.90
5394;DHT22;2720;52.396;10.064;2022-12-16T09:51:41;-2.30;99.90
5394;DHT22;2720;52.396;10.064;2022-12-16T09:54:43;-2.40;99.90
5394;DHT22;2720;52.396;10.064;2022-12-16T09:57:29;-2.30;99.90
5394;DHT22;2720;52.396;10.064;2022-12-16T10:00:19;-2.10;99.90
5394;DHT22;2720;52.396;10.064;2022-12-16T10:03:11;-2.20;99.90
5394;DHT22;2720;52.396;10.064;2022-12-16T10:05:59;-2.30;99.90
5394;DHT22;2720;52.396;10.064;2022-12-16T10:08:54;-2.10;99.90
5394;DHT22;2720;52.396;10.064;2022-12-16T10:11:45;-2.20;99.90
5394;DHT22;2720;52.396;10.064;2022-12-16T10:14:37;-1.60;99.90
5394;DHT22;2720;52.396;10.064;2022-12-16T10:17:25;-1.50;99.90
5394;DHT22;2720;52.396;10.064;2022-12-16T10:20:28;-1.60;99.90
5394;DHT22;2720;52.396;10.064;2022-12-16T10:23:18;-1.40;99.90
5394;DHT22;2720;52.396;10.064;2022-12-16T10:26:09;-1.30;99.90
5394;DHT22;2720;52.396;10.064;2022-12-16T10:29:02;-1.30;99.90
5394;DHT22;2720;52.396;10.064;2022-12-16T10:31:49;-1.20;99.90
5394;DHT22;2720;52.396;10.064;2022-12-16T10:34:34;-1.20;99.90
5394;DHT22;2720;52.396;10.064;2022-12-16T10:37:24;-1.10;99.90
5394;DHT22;2720;52.396;10.064;2022-12-16T10:40:14;-1.10;99.90
5394;DHT22;2720;52.396;10.064;2022-12-16T10:43:06;-1.00;99.90
5394;DHT22;2720;52.396;10.064;2022-12-16T10:45:56;-0.60;99.90
5394;DHT22;2720;52.396;10.064;2022-12-16T10:48:41;-1.20;99.90
5394;DHT22;2720;52.396;10.064;2022-12-16T10:51:27;-0.90;99.90
5394;DHT22;2720;52.396;10.064;2022-12-16T10:54:31;-1.00;99.90
5394;DHT22;2720;52.396;10.064;2022-12-16T10:57:25;-1.10;99.90
5394;DHT22;2720;52.396;10.064;2022-12-16T11:00:15;-1.20;99.90
5394;DHT22;2720;52.396;10.064;2022-12-16T11:03:17;-1.40;99.90
5394;DHT22;2720;52.396;10.064;2022-12-16T11:06:02;-1.20;99.90
5394;DHT22;2720;52.396;10.064;2022-12-16T11:08:46;-1.30;99.90
5394;DHT22;2720;52.396;10.064;2022-12-16T11:11:31;-1.30;99.90
5394;DHT22;2720;52.396;10.064;2022-12-16T11:14:19;-1.30;99.90
5394;DHT22;2720;52.396;10.064;2022-12-16T11:17:14;-1.40;99.90
5394;DHT22;2720;52.396;10.064;2022-12-16T11:20:07;-1.40;99.90
5394;DHT22;2720;52.396;10.064;2022-12-16T11:23:14;-1.10;99.90
5394;DHT22;2720;52.396;10.064;2022-12-16T11:26:13;-0.90;99.90
5394;DHT22;2720;52.396;10.064;2022-12-16T11:29:13;-1.00;99.90
5394;DHT22;2720;52.396;10.064;2022-12-16T11:32:00;-1.00;99.90
5394;DHT22;2720;52.396;10.064;2022-12-16T11:34:50;-1.00;99.90
5394;DHT22;2720;52.396;10.064;2022-12-16T11:37:37;-0.80;99.90
5394;DHT22;2720;52.396;10.064;2022-12-16T11:40:23;-0.60;99.90
5394;DHT22;2720;52.396;10.064;2022-12-16T11:43:09;-0.50;99.90
5394;DHT22;2720;52.396;10.064;2022-12-16T11:45:56;-0.60;99.90
5394;DHT22;2720;52.396;10.064;2022-12-16T11:48:43;-0.50;99.90
5394;DHT22;2720;52.396;10.064;2022-12-16T11:51:33;-0.50;99.90
5394;DHT22;2720;52.396;10.064;2022-12-16T11:54:24;-0.60;99.90
5394;DHT22;2720;52.396;10.064;2022-12-16T11:57:21;-0.60;99.90
5394;DHT22;2720;52.396;10.064;2022-12-16T12:00:13;-0.50;99.90
5394;DHT22;2720;52.396;10.064;2022-12-16T12:03:03;-0.30;99.90
5394;DHT22;2720;52.396;10.064;2022-12-16T12:05:59;-0.20;99.90
5394;DHT22;2720;52.396;10.064;2022-12-16T12:08:59;-0.30;99.90
5394;DHT22;2720;52.396;10.064;2022-12-16T12:11:50;0.00;99.90
5394;DHT22;2720;52.396;10.064;2022-12-16T12:14:42;-0.10;99.90
5394;DHT22;2720;52.396;10.064;2022-12-16T12:17:35;-0.10;99.90
5394;DHT22;2720;52.396;10.064;2022-12-16T12:20:45;-0.30;99.90
5394;DHT22;2720;52.396;10.064;2022-12-16T12:23:38;-0.40;99.90
5394;DHT22;2720;52.396;10.064;2022-12-16T12:26:29;-0.40;99.90
5394;DHT22;2720;52.396;10.064;2022-12-16T12:29:19;-0.40;99.90
5394;DHT22;2720;52.396;10.064;2022-12-16T12:32:12;-0.20;99.90
5394;DHT22;2720;52.396;10.064;2022-12-16T12:35:05;-0.20;99.90
5394;DHT22;2720;52.396;10.064;2022-12-16T12:37:57;-0.20;99.90
5394;DHT22;2720;52.396;10.064;2022-12-16T12:40:49;-0.10;99.90
5394;DHT22;2720;52.396;10.064;2022-12-16T12:43:44;0.00;99.90
5394;DHT22;2720;52.396;10.064;2022-12-16T12:49:23;-0.30;99.90
5394;DHT22;2720;52.396;10.064;2022-12-16T12:52:18;-0.30;99.90
5394;DHT22;2720;52.396;10.064;2022-12-16T12:55:09;-0.30;99.90
5394;DHT22;2720;52.396;10.064;2022-12-16T12:57:56;-0.40;99.90
5394;DHT22;2720;52.396;10.064;2022-12-16T13:00:48;-0.40;99.90
5394;DHT22;2720;52.396;10.064;2022-12-16T13:03:51;-0.30;99.90
5394;DHT22;2720;52.396;10.064;2022-12-16T13:06:40;-0.10;99.90
5394;DHT22;2720;52.396;10.064;2022-12-16T13:09:28;-0.30;99.90
5394;DHT22;2720;52.396;10.064;2022-12-16T13:12:25;-0.60;99.90
5394;DHT22;2720;52.396;10.064;2022-12-16T13:15:34;-0.40;99.90
5394;DHT22;2720;52.396;10.064;2022-12-16T13:18:27;-0.20;99.90
5394;DHT22;2720;52.396;10.064;2022-12-16T13:21:45;-0.10;99.90
5394;DHT22;2720;52.396;10.064;2022-12-16T13:24:45;-0.10;99.90
5394;DHT22;2720;52.396;10.064;2022-12-16T13:27:45;-0.10;99.90
5394;DHT22;2720;52.396;10.064;2022-12-16T13:30:31;0.10;99.90
5394;DHT22;2720;52.396;10.064;2022-12-16T13:33:22;0.00;99.90
5394;DHT22;2720;52.396;10.064;2022-12-16T13:36:09;0.10;99.90
5394;DHT22;2720;52.396;10.064;2022-12-16T13:38:56;0.10;99.90
5394;DHT22;2720;52.396;10.064;2022-12-16T13:41:50;0.00;99.90
5394;DHT22;2720;52.396;10.064;2022-12-16T13:44:57;0.00;99.90
5394;DHT22;2720;52.396;10.064;2022-12-16T13:48:15;0.00;99.90
5394;DHT22;2720;52.396;10.064;2022-12-16T13:54:39;-0.10;99.90
5394;DHT22;2720;52.396;10.064;2022-12-16T13:57:28;-0.40;99.90
5394;DHT22;2720;52.396;10.064;2022-12-16T14:00:17;-0.40;99.90
5394;DHT22;2720;52.396;10.064;2022-12-16T14:03:03;-0.40;99.90
5394;DHT22;2720;52.396;10.064;2022-12-16T14:05:53;-0.50;99.90
5394;DHT22;2720;52.396;10.064;2022-12-16T14:08:38;-0.50;99.90
5394;DHT22;2720;52.396;10.064;2022-12-16T14:11:33;-0.90;99.90
5394;DHT22;2720;52.396;10.064;2022-12-16T14:14:23;-0.50;99.90
5394;DHT22;2720;52.396;10.064;2022-12-16T14:17:14;-0.50;99.90
5394;DHT22;2720;52.396;10.064;2022-12-16T14:20:05;-0.60;99.90
5394;DHT22;2720;52.396;10.064;2022-12-16T14:22:58;-0.80;99.90
5394;DHT22;2720;52.396;10.064;2022-12-16T14:25:45;-0.80;99.90
5394;DHT22;2720;52.396;10.064;2022-12-16T14:28:32;-0.80;99.90
5394;DHT22;2720;52.396;10.064;2022-12-16T14:31:20;-0.80;99.90
5394;DHT22;2720;52.396;10.064;2022-12-16T14:34:11;-0.90;99.90
5394;DHT22;2720;52.396;10.064;2022-12-16T14:36:56;-0.80;99.90
5394;DHT22;2720;52.396;10.064;2022-12-16T14:39:40;-0.80;99.90
5394;DHT22;2720;52.396;10.064;2022-12-16T14:42:26;-0.80;99.90
5394;DHT22;2720;52.396;10.064;2022-12-16T14:45:27;-0.90;99.90
5394;DHT22;2720;52.396;10.064;2022-12-16T14:48:25;-0.90;99.90
5394;DHT22;2720;52.396;10.064;2022-12-16T14:51:19;-0.70;99.90
5394;DHT22;2720;52.396;10.064;2022-12-16T14:54:30;-1.00;99.90
5394;DHT22;2720;52.396;10.064;2022-12-16T14:57:19;-1.30;99.90
5394;DHT22;2720;52.396;10.064;2022-12-16T15:00:20;-1.30;99.90
5394;DHT22;2720;52.396;10.064;2022-12-16T15:03:13;-1.30;99.90
5394;DHT22;2720;52.396;10.064;2022-12-16T15:06:04;-1.20;99.90
5394;DHT22;2720;52.396;10.064;2022-12-16T15:08:53;-1.20;99.90
5394;DHT22;2720;52.396;10.064;2022-12-16T15:11:41;-1.20;99.90
5394;DHT22;2720;52.396;10.064;2022-12-16T15:14:29;-1.20;99.90
5394;DHT22;2720;52.396;10.064;2022-12-16T15:17:19;-1.10;99.90
5394;DHT22;2720;52.396;10.064;2022-12-16T15:20:14;-0.80;99.90
5394;DHT22;2720;52.396;10.064;2022-12-16T15:23:11;-1.20;99.90
5394;DHT22;2720;52.396;10.064;2022-12-16T15:25:57;-1.20;99.90
5394;DHT22;2720;52.396;10.064;2022-12-16T15:28:43;-1.30;99.90
5394;DHT22;2720;52.396;10.064;2022-12-16T15:31:31;-1.40;99.90
5394;DHT22;2720;52.396;10.064;2022-12-16T15:34:27;-1.40;99.90
5394;DHT22;2720;52.396;10.064;2022-12-16T15:37:18;-1.40;99.90
5394;DHT22;2720;52.396;10.064;2022-12-16T15:40:13;-1.00;99.90
5394;DHT22;2720;52.396;10.064;2022-12-16T15:43:01;-1.30;99.90
5394;DHT22;2720;52.396;10.064;2022-12-16T15:45:47;-1.20;99.90
5394;DHT22;2720;52.396;10.064;2022-12-16T15:48:34;-1.50;99.90
5394;DHT22;2720;52.396;10.064;2022-12-16T15:51:21;-1.50;99.90
5394;DHT22;2720;52.396;10.064;2022-12-16T15:54:17;-1.40;99.90
5394;DHT22;2720;52.396;10.064;2022-12-16T15:57:01;-1.50;99.90
5394;DHT22;2720;52.396;10.064;2022-12-16T15:59:55;-1.50;99.90
5394;DHT22;2720;52.396;10.064;2022-12-16T16:02:51;-1.40;99.90
5394;DHT22;2720;52.396;10.064;2022-12-16T16:05:36;-1.40;99.90
5394;DHT22;2720;52.396;10.064;2022-12-16T16:08:20;-1.30;99.90
5394;DHT22;2720;52.396;10.064;2022-12-16T16:11:07;-1.30;99.90
5394;DHT22;2720;52.396;10.064;2022-12-16T16:13:51;-1.40;99.90
5394;DHT22;2720;52.396;10.064;2022-12-16T16:16:35;-1.10;99.90
5394;DHT22;2720;52.396;10.064;2022-12-16T16:19:22;-1.40;99.90
5394;DHT22;2720;52.396;10.064;2022-12-16T16:22:10;-1.40;99.90
5394;DHT22;2720;52.396;10.064;2022-12-16T16:24:54;-1.60;99.90
5394;DHT22;2720;52.396;10.064;2022-12-16T16:27:40;-1.20;99.90
5394;DHT22;2720;52.396;10.064;2022-12-16T16:30:25;-1.50;99.90
5394;DHT22;2720;52.396;10.064;2022-12-16T16:33:09;-1.40;99.90
5394;DHT22;2720;52.396;10.064;2022-12-16T16:35:54;-1.40;99.90
5394;DHT22;2720;52.396;10.064;2022-12-16T16:38:38;-1.60;99.90
5394;DHT22;2720;52.396;10.064;2022-12-16T16:41:23;-1.50;99.90
5394;DHT22;2720;52.396;10.064;2022-12-16T16:44:09;-1.70;99.90
5394;DHT22;2720;52.396;10.064;2022-12-16T16:49:50;-1.70;99.90
5394;DHT22;2720;52.396;10.064;2022-12-16T16:52:34;-1.60;99.90
5394;DHT22;2720;52.396;10.064;2022-12-16T16:55:21;-1.50;99.90
5394;DHT22;2720;52.396;10.064;2022-12-16T16:58:09;-1.70;99.90
5394;DHT22;2720;52.396;10.064;2022-12-16T17:00:56;-1.70;99.90
5394;DHT22;2720;52.396;10.064;2022-12-16T17:03:40;-1.40;99.90
5394;DHT22;2720;52.396;10.064;2022-12-16T17:06:25;-1.60;99.90
5394;DHT22;2720;52.396;10.064;2022-12-16T17:09:09;-1.30;99.90
5394;DHT22;2720;52.396;10.064;2022-12-16T17:11:54;-1.20;99.90
5394;DHT22;2720;52.396;10.064;2022-12-16T17:14:34;-1.70;99.90
5394;DHT22;2720;52.396;10.064;2022-12-16T17:17:35;-1.60;99.90
5394;DHT22;2720;52.396;10.064;2022-12-16T17:20:19;-1.80;99.90
5394;DHT22;2720;52.396;10.064;2022-12-16T17:23:04;-1.60;99.90
5394;DHT22;2720;52.396;10.064;2022-12-16T17:25:48;-1.60;99.90
5394;DHT22;2720;52.396;10.064;2022-12-16T17:28:32;-1.50;99.90
5394;DHT22;2720;52.396;10.064;2022-12-16T17:31:17;-1.40;99.90
5394;DHT22;2720;52.396;10.064;2022-12-16T17:34:02;-1.30;99.90
5394;DHT22;2720;52.396;10.064;2022-12-16T17:36:46;-1.30;99.90
5394;DHT22;2720;52.396;10.064;2022-12-16T17:39:31;-1.60;99.90
5394;DHT22;2720;52.396;10.064;2022-12-16T17:42:15;-1.50;99.90
5394;DHT22;2720;52.396;10.064;2022-12-16T17:44:59;-1.60;99.90
5394;DHT22;2720;52.396;10.064;2022-12-16T17:47:43;-1.60;99.90